createdAt,value
2022-12-01T00:04:49.185Z,41.05
2022-12-01T00:10:09.128Z,44.53
2022-12-01T00:15:11.500Z,42.17
2022-12-01T00:20:14.306Z,49.30
2022-12-01T00:25:18.176Z,51.92
2022-12-01T00:30:21.842Z,50.00
2022-12-01T00:35:23.409Z,48.78
2022-12-01T00:40:24.970Z,53.53
2022-12-01T00:45:26.568Z,62.20
2022-12-01T00:50:28.143Z,63.03
2022-12-01T00:55:29.698Z,67.53
2022-12-01T01:00:31.294Z,63.20
2022-12-01T01:05:39.513Z,63.83
2022-12-01T01:10:43.188Z,74.57
2022-12-01T01:15:44.823Z,77.40
2022-12-01T01:20:55.419Z,100.30
2022-12-01T01:26:14.199Z,96.38
2022-12-01T01:31:18.654Z,125.22
2022-12-01T01:36:20.479Z,113.80
2022-12-01T01:41:23.508Z,126.70
2022-12-01T01:46:27.980Z,124.10
2022-12-01T01:51:38.469Z,136.02
2022-12-01T01:56:40.088Z,131.00
2022-12-01T02:01:41.709Z,121.93
2022-12-01T02:06:43.393Z,121.65
2022-12-01T02:11:53.451Z,116.28
2022-12-01T02:17:03.815Z,129.20
2022-12-01T02:22:30.357Z,130.50
2022-12-01T02:27:41.174Z,106.97
2022-12-01T02:33:03.064Z,140.77
2022-12-01T02:38:14.232Z,189.70
2022-12-01T02:43:33.321Z,159.05
2022-12-01T02:48:38.122Z,120.25
2022-12-01T02:53:39.751Z,133.25
2022-12-01T02:58:42.769Z,109.37
2022-12-01T03:04:10.872Z,106.47
2022-12-01T03:09:30.855Z,102.50
2022-12-01T03:14:59.815Z,92.07
2022-12-01T03:20:16.324Z,158.10
2022-12-01T03:25:20.050Z,99.20
2022-12-01T03:30:22.489Z,121.00
2022-12-01T03:35:27.992Z,125.57
2022-12-01T03:40:32.597Z,117.27
2022-12-01T03:46:07.622Z,112.25
2022-12-01T03:51:25.653Z,119.17
2022-12-01T03:56:33.289Z,153.52
2022-12-01T04:01:35.573Z,117.07
2022-12-01T04:06:38.936Z,102.87
2022-12-01T04:11:59.670Z,102.00
2022-12-01T04:17:01.361Z,114.87
2022-12-01T04:22:03.673Z,111.97
2022-12-01T04:27:05.230Z,127.77
2022-12-01T04:32:07.160Z,120.63
2022-12-01T04:37:09.994Z,105.13
2022-12-01T04:42:11.745Z,99.23
2022-12-01T04:47:13.356Z,94.10
2022-12-01T04:52:15.312Z,92.13
2022-12-01T04:57:16.898Z,90.00
2022-12-01T05:02:18.805Z,86.65
2022-12-01T05:07:20.615Z,77.27
2022-12-01T05:12:22.238Z,85.60
2022-12-01T05:17:23.852Z,77.47
2022-12-01T05:22:56.782Z,76.57
2022-12-01T05:27:46.965Z,71.43
2022-12-01T05:32:50.632Z,77.23
2022-12-01T05:37:52.261Z,72.20
2022-12-01T05:42:53.836Z,77.23
2022-12-01T05:48:00.172Z,75.03
2022-12-01T05:53:01.704Z,77.47
2022-12-01T05:58:03.363Z,78.17
2022-12-01T06:03:05.636Z,69.17
2022-12-01T06:08:07.793Z,76.30
2022-12-01T06:13:09.368Z,77.00
2022-12-01T06:18:11.088Z,72.07
2022-12-01T06:23:12.658Z,76.07
2022-12-01T06:28:14.865Z,76.23
2022-12-01T06:33:16.479Z,75.87
2022-12-01T06:38:18.098Z,69.77
2022-12-01T06:43:19.670Z,67.53
2022-12-01T06:48:21.405Z,71.57
2022-12-01T06:53:23.418Z,73.07
2022-12-01T06:58:24.996Z,72.27
2022-12-01T07:03:27.263Z,74.67
2022-12-01T07:08:30.606Z,70.33
2022-12-01T07:13:33.983Z,82.20
2022-12-01T07:18:37.058Z,80.40
2022-12-01T07:23:38.731Z,80.80
2022-12-01T07:28:40.693Z,65.30
2022-12-01T07:33:42.824Z,76.87
2022-12-01T07:38:44.653Z,74.93
2022-12-01T07:43:47.804Z,76.77
2022-12-01T07:48:49.458Z,74.70
2022-12-01T07:53:52.305Z,72.03
2022-12-01T07:58:54.170Z,78.43
2022-12-01T08:03:57.295Z,73.60
2022-12-01T08:08:58.892Z,69.37
2022-12-01T08:14:00.444Z,70.93
2022-12-01T08:19:02.057Z,75.53
2022-12-01T08:24:04.966Z,71.27
2022-12-01T08:29:06.596Z,67.10
2022-12-01T08:34:08.280Z,65.40
2022-12-01T08:39:09.945Z,67.40
2022-12-01T08:44:11.633Z,61.40
2022-12-01T08:49:13.339Z,59.93
2022-12-01T08:54:16.492Z,62.33
2022-12-01T08:59:18.061Z,58.13
2022-12-01T09:04:26.295Z,59.30
2022-12-01T09:09:29.105Z,53.88
2022-12-01T09:14:30.667Z,52.60
2022-12-01T09:19:32.423Z,60.92
2022-12-01T09:24:34.091Z,57.75
2022-12-01T09:29:35.770Z,61.13
2022-12-01T09:34:37.351Z,65.73
2022-12-01T09:39:38.928Z,57.97
2022-12-01T09:44:53.380Z,67.77
2022-12-01T09:50:04.126Z,68.93
2022-12-01T09:55:12.712Z,63.22
2022-12-01T10:00:19.359Z,66.57
2022-12-01T10:05:23.853Z,59.33
2022-12-01T10:10:30.763Z,59.60
2022-12-01T10:15:53.878Z,66.07
2022-12-01T10:21:16.088Z,65.65
2022-12-01T10:26:54.884Z,56.92
2022-12-01T10:32:01.298Z,63.97
2022-12-01T10:37:03.312Z,61.00
2022-12-01T10:42:13.093Z,64.77
2022-12-01T10:47:21.088Z,71.63
2022-12-01T10:52:38.402Z,67.73
2022-12-01T10:57:45.738Z,73.55
2022-12-01T11:02:47.928Z,71.15
2022-12-01T11:07:49.966Z,74.53
2022-12-01T11:12:58.913Z,66.82
2022-12-01T11:18:02.720Z,66.80
2022-12-01T11:23:29.902Z,72.53
2022-12-01T11:28:33.427Z,70.97
2022-12-01T11:33:50.040Z,72.87
2022-12-01T11:38:57.241Z,80.40
2022-12-01T11:44:06.244Z,74.75
2022-12-01T11:49:21.275Z,63.33
2022-12-01T11:54:26.020Z,69.72
2022-12-01T11:59:28.680Z,76.97
2022-12-01T12:04:39.406Z,72.30
2022-12-01T12:10:14.643Z,83.20
2022-12-01T12:15:31.230Z,73.35
2022-12-01T12:20:45.299Z,78.30
2022-12-01T12:26:25.374Z,72.38
2022-12-01T12:32:05.088Z,82.93
2022-12-01T12:37:16.335Z,71.55
2022-12-01T12:42:43.408Z,78.15
2022-12-01T12:48:15.450Z,76.25
2022-12-01T12:53:24.609Z,75.45
2022-12-01T12:58:32.629Z,84.88
2022-12-01T13:03:46.493Z,96.15
2022-12-01T13:08:56.251Z,93.55
2022-12-01T13:14:32.195Z,82.80
2022-12-01T13:19:37.327Z,88.63
2022-12-01T13:24:39.335Z,94.80
2022-12-01T13:29:46.739Z,94.32
2022-12-01T13:34:48.451Z,91.68
2022-12-01T13:39:54.504Z,83.07
2022-12-01T13:45:01.984Z,92.57
2022-12-01T13:50:53.217Z,92.68
2022-12-01T13:55:57.793Z,101.10
2022-12-01T14:01:22.147Z,98.45
2022-12-01T14:06:49.287Z,99.45
2022-12-01T14:12:00.983Z,106.27
2022-12-01T14:17:03.277Z,111.43
2022-12-01T14:22:07.385Z,121.37
2022-12-01T14:27:11.878Z,112.17
2022-12-01T14:32:16.491Z,109.43
2022-12-01T14:37:20.866Z,102.97
2022-12-01T14:42:53.331Z,112.53
2022-12-01T14:48:09.325Z,112.43
2022-12-01T14:53:27.780Z,110.47
2022-12-01T14:58:33.413Z,115.97
2022-12-01T15:03:39.543Z,118.83
2022-12-01T15:08:49.355Z,115.67
2022-12-01T15:14:00.324Z,111.33
2022-12-01T15:19:01.887Z,127.30
2022-12-01T15:24:22.101Z,124.50
2022-12-01T15:29:26.414Z,132.00
2022-12-01T15:34:44.412Z,107.73
2022-12-01T15:39:49.893Z,134.00
2022-12-01T15:45:03.833Z,125.43
2022-12-01T15:50:06.993Z,120.77
2022-12-01T15:55:24.388Z,130.27
2022-12-01T16:00:26.711Z,130.37
2022-12-01T16:05:37.395Z,159.20
2022-12-01T16:10:39.012Z,152.53
2022-12-01T16:15:44.135Z,159.03
2022-12-01T16:20:45.842Z,169.73
2022-12-01T16:25:48.540Z,145.63
2022-12-01T16:30:51.647Z,140.53
2022-12-01T16:35:53.859Z,133.90
2022-12-01T16:40:58.489Z,142.33
2022-12-01T16:46:03.286Z,141.33
2022-12-01T16:51:07.347Z,146.47
2022-12-01T16:56:12.743Z,133.38
2022-12-01T17:01:14.496Z,118.07
2022-12-01T17:06:18.549Z,112.43
2022-12-01T17:11:20.428Z,115.47
2022-12-01T17:16:22.147Z,108.80
2022-12-01T17:21:23.827Z,109.10
2022-12-01T17:26:25.444Z,108.83
2022-12-01T17:31:27.589Z,108.57
2022-12-01T17:36:29.244Z,110.97
2022-12-01T17:41:35.631Z,118.00
2022-12-01T17:46:38.527Z,107.50
2022-12-01T17:51:41.604Z,116.00
2022-12-01T17:56:43.518Z,109.97
2022-12-01T18:01:45.162Z,109.27
2022-12-01T18:06:50.818Z,116.30
2022-12-01T18:11:57.082Z,114.17
2022-12-01T18:16:58.722Z,112.37
2022-12-01T18:22:00.762Z,122.87
2022-12-01T18:27:02.386Z,112.97
2022-12-01T18:32:04.161Z,113.57
2022-12-01T18:37:06.040Z,120.47
2022-12-01T18:42:07.787Z,124.67
2022-12-01T18:47:09.655Z,121.93
2022-12-01T18:52:11.449Z,109.90
2022-12-01T18:57:14.602Z,117.57
2022-12-01T19:02:16.329Z,111.97
2022-12-01T19:07:18.078Z,112.63
2022-12-01T19:12:20.386Z,125.60
2022-12-01T19:17:22.023Z,113.87
2022-12-01T19:22:23.921Z,124.00
2022-12-01T19:27:28.173Z,119.73
2022-12-01T19:32:33.566Z,118.27
2022-12-01T19:37:35.203Z,117.20
2022-12-01T19:42:36.829Z,143.52
2022-12-01T19:47:39.386Z,120.67
2022-12-01T19:52:41.510Z,114.10
2022-12-01T19:57:44.628Z,112.37
2022-12-01T20:02:46.275Z,106.97
2022-12-01T20:07:47.973Z,106.63
2022-12-01T20:12:50.715Z,104.80
2022-12-01T20:17:53.748Z,109.70
2022-12-01T20:22:55.335Z,108.20
2022-12-01T20:27:56.913Z,100.63
2022-12-01T20:32:58.589Z,98.63
2022-12-01T20:38:00.202Z,97.30
2022-12-01T20:43:01.799Z,106.37
2022-12-01T20:48:03.625Z,91.13
2022-12-01T20:53:05.570Z,88.95
2022-12-01T20:58:08.830Z,98.38
2022-12-01T21:03:11.604Z,94.60
2022-12-01T21:08:14.238Z,94.53
2022-12-01T21:13:39.451Z,106.30
2022-12-01T21:19:00.643Z,92.47
2022-12-01T21:24:08.207Z,87.00
2022-12-01T21:29:20.655Z,93.97
2022-12-01T21:34:25.003Z,101.35
2022-12-01T21:39:26.652Z,107.82
2022-12-01T21:44:36.889Z,100.07
2022-12-01T21:49:39.688Z,103.33
2022-12-01T21:54:41.393Z,91.70
2022-12-01T21:59:42.999Z,98.60
2022-12-01T22:04:45.253Z,106.77
2022-12-01T22:09:47.344Z,102.40
2022-12-01T22:14:49.929Z,102.47
2022-12-01T22:20:01.341Z,98.63
2022-12-01T22:25:24.092Z,92.37
2022-12-01T22:30:25.764Z,104.47
2022-12-01T22:35:45.153Z,105.83
2022-12-01T22:40:58.394Z,106.97
2022-12-01T22:45:59.964Z,99.60
2022-12-01T22:51:22.015Z,116.63
2022-12-01T22:56:39.767Z,109.97
2022-12-01T23:02:16.523Z,109.00
2022-12-01T23:07:41.379Z,107.70
2022-12-01T23:12:45.205Z,104.07
2022-12-01T23:17:47.248Z,107.17
2022-12-01T23:22:49.042Z,106.80
2022-12-01T23:27:52.597Z,100.57
2022-12-01T23:33:04.131Z,111.33
2022-12-01T23:38:08.827Z,94.77
2022-12-01T23:43:23.072Z,107.30
2022-12-01T23:48:31.856Z,110.63
2022-12-01T23:53:33.744Z,104.80
2022-12-01T23:58:35.437Z,102.30
